createdAt,value
2022-12-29T00:01:16.291Z,99055.91
2022-12-29T00:03:44.916Z,99043.66
2022-12-29T00:06:13.242Z,99045.38
2022-12-29T00:08:41.759Z,99031.41
2022-12-29T00:11:11.565Z,99029.69
2022-12-29T00:13:58.097Z,99012.31
2022-12-29T00:16:28.531Z,99009.72
2022-12-29T00:18:56.895Z,99014.06
2022-12-29T00:21:43.672Z,99000.94
2022-12-29T00:24:32.708Z,99005.31
2022-12-29T00:27:29.603Z,98998.31
2022-12-29T00:30:15.641Z,98995.63
2022-12-29T00:33:02.897Z,99000.94
2022-12-29T00:35:33.911Z,98993.03
2022-12-29T00:38:22.878Z,98996.50
2022-12-29T00:41:08.608Z,98999.88
2022-12-29T00:43:54.139Z,98995.53
2022-12-29T00:46:22.861Z,98977.22
2022-12-29T00:49:09.755Z,98985.91
2022-12-29T00:51:38.373Z,98984.06
2022-12-29T00:54:06.525Z,98976.97
2022-12-29T00:56:35.345Z,98976.88
2022-12-29T00:59:04.170Z,98975.09
2022-12-29T01:01:32.767Z,98971.59
2022-12-29T01:04:04.556Z,98968.00
2022-12-29T01:06:33.781Z,98960.94
2022-12-29T01:09:19.310Z,98960.81
2022-12-29T01:11:48.068Z,98955.53
2022-12-29T01:14:16.786Z,98947.72
2022-12-29T01:16:46.851Z,98941.53
2022-12-29T01:19:17.168Z,98944.09
2022-12-29T01:21:46.866Z,98927.41
2022-12-29T01:24:15.557Z,98930.84
2022-12-29T01:26:43.774Z,98915.94
2022-12-29T01:29:12.135Z,98921.97
2022-12-29T01:31:40.490Z,98923.69
2022-12-29T01:34:09.300Z,98903.69
2022-12-29T01:36:38.818Z,98909.72
2022-12-29T01:39:06.989Z,98904.41
2022-12-29T01:41:35.647Z,98897.41
2022-12-29T01:44:04.074Z,98896.47
2022-12-29T01:46:36.043Z,98888.69
2022-12-29T01:49:12.762Z,98904.34
2022-12-29T01:51:46.083Z,98892.97
2022-12-29T01:54:19.174Z,98876.47
2022-12-29T01:56:48.200Z,98872.84
2022-12-29T01:59:22.533Z,98876.34
2022-12-29T02:01:51.289Z,98862.31
2022-12-29T02:04:20.436Z,98856.22
2022-12-29T02:06:54.865Z,98852.78
2022-12-29T02:09:24.624Z,98848.31
2022-12-29T02:11:54.156Z,98848.25
2022-12-29T02:14:22.428Z,98841.38
2022-12-29T02:17:08.690Z,98840.50
2022-12-29T02:20:16.361Z,98827.47
2022-12-29T02:22:58.037Z,98816.91
2022-12-29T02:25:46.961Z,98813.47
2022-12-29T02:29:03.801Z,98805.69
2022-12-29T02:31:44.105Z,98804.72
2022-12-29T02:34:24.592Z,98790.78
2022-12-29T02:37:02.756Z,98795.88
2022-12-29T02:39:40.396Z,98783.84
2022-12-29T02:42:16.190Z,98783.78
2022-12-29T02:44:57.088Z,98775.13
2022-12-29T02:47:36.033Z,98750.88
2022-12-29T02:50:09.030Z,98773.25
2022-12-29T02:52:41.419Z,98766.34
2022-12-29T02:55:08.831Z,98773.25
2022-12-29T02:57:37.406Z,98747.91
2022-12-29T03:00:09.685Z,98748.84
2022-12-29T03:03:18.896Z,98730.06
2022-12-29T03:06:09.677Z,98736.81
2022-12-29T03:08:48.414Z,98734.25
2022-12-29T03:11:31.097Z,98729.75
2022-12-29T03:14:21.785Z,98713.25
2022-12-29T03:16:54.584Z,98714.16
2022-12-29T03:19:27.435Z,98707.19
2022-12-29T03:22:17.399Z,98710.63
2022-12-29T03:24:50.014Z,98703.50
2022-12-29T03:27:22.352Z,98705.31
2022-12-29T03:29:55.435Z,98700.16
2022-12-29T03:32:25.949Z,98682.56
2022-12-29T03:34:56.928Z,98701.72
2022-12-29T03:37:28.541Z,98690.28
2022-12-29T03:39:57.111Z,98680.75
2022-12-29T03:42:29.914Z,98680.75
2022-12-29T03:44:59.057Z,98674.69
2022-12-29T03:47:27.855Z,98665.06
2022-12-29T03:49:57.343Z,98663.44
2022-12-29T03:52:25.781Z,98656.31
2022-12-29T03:54:53.995Z,98665.97
2022-12-29T03:57:22.274Z,98658.19
2022-12-29T03:59:50.601Z,98661.63
2022-12-29T04:02:18.906Z,98642.50
2022-12-29T04:04:48.850Z,98648.47
2022-12-29T04:07:18.716Z,98628.59
2022-12-29T04:09:46.966Z,98628.50
2022-12-29T04:12:15.637Z,98619.81
2022-12-29T04:14:43.952Z,98621.63
2022-12-29T04:17:12.129Z,98623.28
2022-12-29T04:19:40.267Z,98602.56
2022-12-29T04:22:07.452Z,98613.53
2022-12-29T04:24:37.020Z,98610.06
2022-12-29T04:27:05.549Z,98595.53
2022-12-29T04:29:34.037Z,98603.97
2022-12-29T04:32:02.412Z,98608.38
2022-12-29T04:34:30.642Z,98598.72
2022-12-29T04:36:59.028Z,98595.91
2022-12-29T04:39:27.309Z,98591.59
2022-12-29T04:41:56.871Z,98580.41
2022-12-29T04:44:25.354Z,98588.19
2022-12-29T04:46:53.585Z,98570.81
2022-12-29T04:49:21.775Z,98588.06
2022-12-29T04:51:50.160Z,98570.94
2022-12-29T04:54:18.479Z,98591.41
2022-12-29T04:56:46.886Z,98585.41
2022-12-29T04:59:16.959Z,98586.28
2022-12-29T05:01:45.747Z,98574.28
2022-12-29T05:04:14.694Z,98579.31
2022-12-29T05:06:43.119Z,98573.44
2022-12-29T05:09:11.486Z,98575.97
2022-12-29T05:11:39.686Z,98575.03
2022-12-29T05:14:08.070Z,98575.81
2022-12-29T05:16:37.616Z,98571.38
2022-12-29T05:19:05.877Z,98568.84
2022-12-29T05:21:34.218Z,98552.50
2022-12-29T05:24:02.379Z,98560.25
2022-12-29T05:26:30.429Z,98563.81
2022-12-29T05:28:58.758Z,98567.03
2022-12-29T05:31:27.066Z,98568.69
2022-12-29T05:33:56.667Z,98560.81
2022-12-29T05:36:25.088Z,98560.72
2022-12-29T05:38:53.324Z,98558.88
2022-12-29T05:41:21.576Z,98556.19
2022-12-29T05:43:49.910Z,98543.22
2022-12-29T05:46:20.929Z,98548.34
2022-12-29T05:48:49.164Z,98551.72
2022-12-29T05:51:18.995Z,98537.81
2022-12-29T05:53:47.130Z,98539.47
2022-12-29T05:56:17.968Z,98541.97
2022-12-29T05:58:46.773Z,98538.44
2022-12-29T06:01:14.937Z,98538.44
2022-12-29T06:03:47.887Z,98544.41
2022-12-29T06:06:18.360Z,98543.59
2022-12-29T06:08:47.399Z,98529.69
2022-12-29T06:11:15.756Z,98529.59
2022-12-29T06:13:44.084Z,98529.41
2022-12-29T06:16:12.340Z,98523.16
2022-12-29T06:18:40.575Z,98510.06
2022-12-29T06:21:09.171Z,98517.03
2022-12-29T06:23:38.733Z,98513.38
2022-12-29T06:26:07.025Z,98499.31
2022-12-29T06:28:35.860Z,98501.22
2022-12-29T06:31:04.401Z,98496.63
2022-12-29T06:33:32.821Z,98487.09
2022-12-29T06:36:01.057Z,98495.78
2022-12-29T06:38:29.670Z,98494.06
2022-12-29T06:40:59.241Z,98494.25
2022-12-29T06:43:27.464Z,98502.91
2022-12-29T06:45:55.641Z,98487.28
2022-12-29T06:48:23.960Z,98493.38
2022-12-29T06:50:52.308Z,98477.88
2022-12-29T06:53:20.470Z,98487.28
2022-12-29T06:55:48.624Z,98487.28
2022-12-29T06:58:18.423Z,98483.91
2022-12-29T07:00:46.862Z,98473.47
2022-12-29T07:03:15.101Z,98473.69
2022-12-29T07:05:43.731Z,98468.34
2022-12-29T07:08:11.991Z,98464.81
2022-12-29T07:10:40.138Z,98473.78
2022-12-29T07:13:09.439Z,98477.31
2022-12-29T07:15:40.294Z,98477.41
2022-12-29T07:18:08.494Z,98475.59
2022-12-29T07:20:36.835Z,98472.16
2022-12-29T07:23:05.016Z,98459.97
2022-12-29T07:25:33.326Z,98461.78
2022-12-29T07:28:04.274Z,98463.50
2022-12-29T07:30:32.609Z,98467.16
2022-12-29T07:33:02.461Z,98470.53
2022-12-29T07:35:30.750Z,98482.81
2022-12-29T07:37:58.978Z,98458.34
2022-12-29T07:40:27.838Z,98482.13
2022-12-29T07:42:55.996Z,98472.59
2022-12-29T07:45:24.076Z,98457.75
2022-12-29T07:47:52.714Z,98456.03
2022-12-29T07:50:25.085Z,98449.13
2022-12-29T07:52:53.425Z,98456.91
2022-12-29T07:55:21.675Z,98467.28
2022-12-29T07:57:49.920Z,98453.25
2022-12-29T08:00:18.723Z,98464.75
2022-12-29T08:02:47.139Z,98473.47
2022-12-29T08:05:16.688Z,98453.56
2022-12-29T08:07:47.747Z,98453.56
2022-12-29T08:10:17.141Z,98461.94
2022-12-29T08:12:45.901Z,98458.59
2022-12-29T08:15:14.552Z,98462.03
2022-12-29T08:17:42.676Z,98452.41
2022-12-29T08:20:11.743Z,98468.19
2022-12-29T08:22:39.877Z,98462.03
2022-12-29T08:25:10.523Z,98460.50
2022-12-29T08:27:39.032Z,98448.31
2022-12-29T08:30:11.114Z,98471.81
2022-12-29T08:32:41.063Z,98466.44
2022-12-29T08:35:09.965Z,98476.13
2022-12-29T08:37:38.396Z,98464.75
2022-12-29T08:40:07.914Z,98470.78
2022-12-29T08:42:37.507Z,98462.94
2022-12-29T08:45:06.291Z,98453.34
2022-12-29T08:47:34.519Z,98455.84
2022-12-29T08:50:02.755Z,98442.69
2022-12-29T08:52:30.956Z,98440.97
2022-12-29T08:54:59.923Z,98453.13
2022-12-29T08:57:28.231Z,98442.69
2022-12-29T08:59:57.955Z,98447.88
2022-12-29T09:02:26.291Z,98450.50
2022-12-29T09:04:55.135Z,98452.28
2022-12-29T09:07:23.414Z,98458.16
2022-12-29T09:09:52.897Z,98447.78
2022-12-29T09:12:21.564Z,98448.63
2022-12-29T09:14:49.807Z,98447.59
2022-12-29T09:17:37.062Z,98440.66
2022-12-29T09:20:06.003Z,98444.16
2022-12-29T09:22:34.162Z,98423.31
2022-12-29T09:25:02.264Z,98440.66
2022-12-29T09:27:31.139Z,98438.72
2022-12-29T09:29:59.468Z,98438.72
2022-12-29T09:32:33.558Z,98429.97
2022-12-29T09:35:05.365Z,98438.72
2022-12-29T09:37:33.640Z,98431.69
2022-12-29T09:40:01.905Z,98437.75
2022-12-29T09:42:37.321Z,98406.69
2022-12-29T09:45:14.568Z,98423.69
2022-12-29T09:47:46.247Z,98405.69
2022-12-29T09:50:25.582Z,98428.81
2022-12-29T09:53:01.405Z,98435.00
2022-12-29T09:55:38.075Z,98437.72
2022-12-29T09:58:13.015Z,98447.28
2022-12-29T10:00:55.173Z,98440.44
2022-12-29T10:03:30.292Z,98430.06
2022-12-29T10:06:06.891Z,98417.09
2022-12-29T10:08:42.235Z,98425.75
2022-12-29T10:11:23.161Z,98446.72
2022-12-29T10:14:13.820Z,98439.00
2022-12-29T10:16:53.508Z,98442.69
2022-12-29T10:19:47.350Z,98447.78
2022-12-29T10:22:30.656Z,98461.13
2022-12-29T10:24:59.192Z,98444.53
2022-12-29T10:27:27.514Z,98460.22
2022-12-29T10:29:58.172Z,98446.22
2022-12-29T10:32:34.299Z,98449.84
2022-12-29T10:35:13.646Z,98434.03
2022-12-29T10:37:47.713Z,98437.56
2022-12-29T10:40:22.760Z,98440.97
2022-12-29T10:42:55.570Z,98434.81
2022-12-29T10:45:26.853Z,98427.00
2022-12-29T10:48:02.485Z,98430.25
2022-12-29T10:50:32.153Z,98428.34
2022-12-29T10:53:03.597Z,98426.44
2022-12-29T10:55:36.819Z,98437.09
2022-12-29T10:58:08.570Z,98424.78
2022-12-29T11:00:36.777Z,98429.16
2022-12-29T11:03:40.621Z,98435.41
2022-12-29T11:06:14.994Z,98430.06
2022-12-29T11:08:52.450Z,98430.91
2022-12-29T11:11:27.749Z,98431.69
2022-12-29T11:14:01.657Z,98435.09
2022-12-29T11:16:32.946Z,98439.41
2022-12-29T11:19:01.344Z,98435.00
2022-12-29T11:21:35.065Z,98435.09
2022-12-29T11:24:05.276Z,98436.63
2022-12-29T11:26:35.394Z,98440.03
2022-12-29T11:29:23.737Z,98423.41
2022-12-29T11:31:55.088Z,98431.06
2022-12-29T11:34:26.378Z,98427.44
2022-12-29T11:37:02.514Z,98432.69
2022-12-29T11:39:35.471Z,98422.31
2022-12-29T11:42:04.963Z,98429.28
2022-12-29T11:44:40.176Z,98431.06
2022-12-29T11:47:13.793Z,98425.81
2022-12-29T11:49:42.217Z,98410.09
2022-12-29T11:52:12.288Z,98416.22
2022-12-29T11:54:41.419Z,98415.06
2022-12-29T11:57:15.752Z,98417.72
2022-12-29T11:59:45.953Z,98427.66
2022-12-29T12:02:27.229Z,98433.59
2022-12-29T12:05:03.881Z,98417.16
2022-12-29T12:07:41.562Z,98427.72
2022-12-29T12:10:19.870Z,98407.41
2022-12-29T12:12:56.110Z,98413.84
2022-12-29T12:15:28.560Z,98432.88
2022-12-29T12:18:02.641Z,98424.16
2022-12-29T12:20:41.046Z,98425.28
2022-12-29T12:23:22.791Z,98423.59
2022-12-29T12:26:00.271Z,98413.22
2022-12-29T12:28:39.030Z,98406.78
2022-12-29T12:31:18.068Z,98424.22
2022-12-29T12:33:53.037Z,98411.31
2022-12-29T12:37:04.260Z,98413.75
2022-12-29T12:39:44.573Z,98404.16
2022-12-29T12:42:26.761Z,98406.91
2022-12-29T12:45:24.298Z,98417.25
2022-12-29T12:48:04.530Z,98399.84
2022-12-29T12:50:55.130Z,98397.41
2022-12-29T12:53:43.478Z,98389.38
2022-12-29T12:56:31.245Z,98392.00
2022-12-29T12:59:09.968Z,98372.88
2022-12-29T13:01:49.193Z,98398.56
2022-12-29T13:04:48.924Z,98406.69
2022-12-29T13:07:27.792Z,98398.03
2022-12-29T13:10:16.257Z,98400.84
2022-12-29T13:12:52.310Z,98389.47
2022-12-29T13:15:36.633Z,98401.66
2022-12-29T13:18:14.195Z,98396.28
2022-12-29T13:20:49.948Z,98398.34
2022-12-29T13:23:26.885Z,98408.69
2022-12-29T13:26:05.209Z,98394.59
2022-12-29T13:28:40.938Z,98402.31
2022-12-29T13:31:18.136Z,98394.38
2022-12-29T13:33:55.878Z,98405.78
2022-12-29T13:36:29.267Z,98391.88
2022-12-29T13:39:06.337Z,98401.53
2022-12-29T13:41:40.024Z,98398.78
2022-12-29T13:44:12.893Z,98390.97
2022-12-29T13:46:44.959Z,98397.13
2022-12-29T13:49:17.878Z,98401.44
2022-12-29T13:51:51.874Z,98416.47
2022-12-29T13:54:30.188Z,98410.50
2022-12-29T13:57:08.090Z,98410.50
2022-12-29T13:59:46.775Z,98419.56
2022-12-29T14:02:27.246Z,98411.94
2022-12-29T14:05:01.448Z,98410.13
2022-12-29T14:07:30.621Z,98418.94
2022-12-29T14:10:00.056Z,98423.38
2022-12-29T14:12:34.093Z,98431.25
2022-12-29T14:15:22.230Z,98433.13
2022-12-29T14:18:07.008Z,98424.31
2022-12-29T14:20:36.412Z,98417.34
2022-12-29T14:23:29.325Z,98425.25
2022-12-29T14:26:00.014Z,98433.19
2022-12-29T14:28:29.897Z,98439.19
2022-12-29T14:31:00.892Z,98435.75
2022-12-29T14:33:31.877Z,98439.47
2022-12-29T14:36:21.255Z,98451.75
2022-12-29T14:38:50.893Z,98456.81
2022-12-29T14:41:32.817Z,98446.69
2022-12-29T14:44:17.063Z,98450.22
2022-12-29T14:46:57.694Z,98459.75
2022-12-29T14:49:27.811Z,98468.31
2022-12-29T14:52:06.446Z,98469.19
2022-12-29T14:54:52.393Z,98467.63
2022-12-29T14:57:34.889Z,98467.63
2022-12-29T15:00:20.423Z,98471.09
2022-12-29T15:03:06.717Z,98479.88
2022-12-29T15:05:39.848Z,98484.91
2022-12-29T15:08:09.450Z,98479.53
2022-12-29T15:10:43.723Z,98477.94
2022-12-29T15:13:20.386Z,98476.13
2022-12-29T15:15:48.809Z,98483.00
2022-12-29T15:18:25.911Z,98489.28
2022-12-29T15:20:57.496Z,98493.56
2022-12-29T15:23:26.472Z,98491.75
2022-12-29T15:25:57.882Z,98490.22
2022-12-29T15:28:27.861Z,98490.13
2022-12-29T15:30:58.101Z,98485.06
2022-12-29T15:33:30.039Z,98508.00
2022-12-29T15:35:59.760Z,98507.91
2022-12-29T15:38:34.512Z,98518.47
2022-12-29T15:41:09.058Z,98516.75
2022-12-29T15:43:53.781Z,98514.22
2022-12-29T15:46:22.362Z,98516.56
2022-12-29T15:48:52.125Z,98524.41
2022-12-29T15:51:23.713Z,98522.00
2022-12-29T15:53:54.040Z,98521.72
2022-12-29T15:56:22.502Z,98535.53
2022-12-29T15:58:53.116Z,98534.66
2022-12-29T16:01:25.918Z,98535.44
2022-12-29T16:03:56.653Z,98533.81
2022-12-29T16:06:33.647Z,98540.84
2022-12-29T16:09:04.737Z,98541.56
2022-12-29T16:11:37.297Z,98544.19
2022-12-29T16:14:11.764Z,98545.13
2022-12-29T16:16:42.881Z,98541.56
2022-12-29T16:19:26.495Z,98542.53
2022-12-29T16:21:54.917Z,98545.91
2022-12-29T16:24:26.074Z,98536.41
2022-12-29T16:27:08.990Z,98549.50
2022-12-29T16:29:37.918Z,98539.75
2022-12-29T16:32:26.328Z,98538.00
2022-12-29T16:35:11.983Z,98539.53
2022-12-29T16:37:40.680Z,98546.31
2022-12-29T16:40:31.479Z,98548.28
2022-12-29T16:43:01.850Z,98556.06
2022-12-29T16:46:08.805Z,98556.31
2022-12-29T16:48:40.419Z,98564.81
2022-12-29T16:51:18.965Z,98569.09
2022-12-29T16:53:52.327Z,98573.38
2022-12-29T16:56:23.404Z,98569.88
2022-12-29T16:58:55.408Z,98556.06
2022-12-29T17:01:24.041Z,98562.75
2022-12-29T17:03:55.771Z,98566.16
2022-12-29T17:06:25.857Z,98553.22
2022-12-29T17:08:55.277Z,98572.22
2022-12-29T17:11:44.208Z,98567.25
2022-12-29T17:14:41.727Z,98570.78
2022-12-29T17:17:16.939Z,98578.88
2022-12-29T17:19:49.816Z,98583.97
2022-12-29T17:22:25.273Z,98583.06
2022-12-29T17:24:54.123Z,98595.06
2022-12-29T17:27:33.471Z,98597.69
2022-12-29T17:30:05.767Z,98590.91
2022-12-29T17:32:34.815Z,98594.31
2022-12-29T17:35:04.209Z,98596.75
2022-12-29T17:37:37.323Z,98594.34
2022-12-29T17:40:08.788Z,98597.81
2022-12-29T17:42:43.732Z,98597.88
2022-12-29T17:45:17.031Z,98610.06
2022-12-29T17:47:45.746Z,98608.44
2022-12-29T17:50:15.878Z,98608.28
2022-12-29T17:52:49.509Z,98611.78
2022-12-29T17:55:19.933Z,98605.81
2022-12-29T17:57:48.768Z,98625.78
2022-12-29T18:00:18.821Z,98626.63
2022-12-29T18:02:47.433Z,98636.38
2022-12-29T18:05:21.152Z,98619.88
2022-12-29T18:07:52.485Z,98627.66
2022-12-29T18:10:21.427Z,98617.28
2022-12-29T18:12:51.199Z,98634.50
2022-12-29T18:15:23.171Z,98625.88
2022-12-29T18:17:56.813Z,98639.94
2022-12-29T18:20:25.532Z,98633.94
2022-12-29T18:22:55.109Z,98627.09
2022-12-29T18:25:26.565Z,98637.59
2022-12-29T18:27:55.243Z,98625.59
2022-12-29T18:30:25.980Z,98632.34
2022-12-29T18:32:54.679Z,98646.41
2022-12-29T18:35:30.480Z,98655.19
2022-12-29T18:38:00.062Z,98655.03
2022-12-29T18:40:29.684Z,98646.19
2022-12-29T18:42:57.862Z,98652.28
2022-12-29T18:45:26.736Z,98652.56
2022-12-29T18:47:55.571Z,98650.88
2022-12-29T18:50:23.844Z,98666.53
2022-12-29T18:52:52.185Z,98667.44
2022-12-29T18:55:24.312Z,98655.44
2022-12-29T18:57:52.791Z,98659.66
2022-12-29T19:00:22.943Z,98659.59
2022-12-29T19:02:52.875Z,98662.25
2022-12-29T19:05:24.015Z,98663.28
2022-12-29T19:07:52.655Z,98657.94
2022-12-29T19:10:23.981Z,98664.97
2022-12-29T19:12:52.980Z,98670.22
2022-12-29T19:15:24.961Z,98676.38
2022-12-29T19:18:32.384Z,98676.19
2022-12-29T19:20:45.336Z,98675.47
2022-12-29T19:23:16.778Z,98677.19
2022-12-29T19:25:47.700Z,98687.72
2022-12-29T19:28:20.288Z,98685.94
2022-12-29T19:30:52.456Z,98697.94
2022-12-29T19:33:22.049Z,98700.56
2022-12-29T19:35:50.884Z,98699.69
2022-12-29T19:38:20.869Z,98705.69
2022-12-29T19:40:53.013Z,98708.28
2022-12-29T19:43:21.302Z,98703.13
2022-12-29T19:45:51.445Z,98711.84
2022-12-29T19:48:21.717Z,98713.72
2022-12-29T19:50:50.105Z,98713.50
2022-12-29T19:53:18.790Z,98722.25
2022-12-29T19:55:48.416Z,98712.78
2022-12-29T19:58:19.183Z,98715.13
2022-12-29T20:00:47.431Z,98725.69
2022-12-29T20:03:15.918Z,98720.38
2022-12-29T20:05:50.999Z,98727.50
2022-12-29T20:08:19.568Z,98723.91
2022-12-29T20:10:57.453Z,98718.66
2022-12-29T20:13:27.436Z,98729.16
2022-12-29T20:16:00.375Z,98733.47
2022-12-29T20:18:31.725Z,98727.50
2022-12-29T20:21:04.153Z,98721.19
2022-12-29T20:23:32.990Z,98744.63
2022-12-29T20:26:02.276Z,98741.31
2022-12-29T20:28:32.329Z,98735.28
2022-12-29T20:31:04.110Z,98744.94
2022-12-29T20:33:33.542Z,98744.88
2022-12-29T20:36:07.654Z,98737.88
2022-12-29T20:38:36.586Z,98744.88
2022-12-29T20:41:05.620Z,98744.00
2022-12-29T20:43:35.358Z,98751.97
2022-12-29T20:46:03.797Z,98753.69
2022-12-29T20:48:32.207Z,98765.06
2022-12-29T20:51:00.655Z,98762.59
2022-12-29T20:53:29.265Z,98769.56
2022-12-29T20:56:02.695Z,98776.56
2022-12-29T20:58:31.710Z,98776.56
2022-12-29T21:01:05.318Z,98775.69
2022-12-29T21:03:34.340Z,98773.94
2022-12-29T21:06:02.741Z,98773.88
2022-12-29T21:08:31.256Z,98767.72
2022-12-29T21:11:00.128Z,98782.66
2022-12-29T21:13:28.647Z,98790.56
2022-12-29T21:15:58.328Z,98785.34
2022-12-29T21:18:28.266Z,98792.28
2022-12-29T21:20:57.875Z,98790.50
2022-12-29T21:23:26.628Z,98799.94
2022-12-29T21:25:55.325Z,98792.06
2022-12-29T21:28:25.310Z,98804.28
2022-12-29T21:30:54.171Z,98799.84
2022-12-29T21:33:23.179Z,98807.59
2022-12-29T21:35:52.959Z,98814.66
2022-12-29T21:38:21.511Z,98807.78
2022-12-29T21:40:49.682Z,98794.94
2022-12-29T21:43:18.270Z,98806.22
2022-12-29T21:45:50.032Z,98814.97
2022-12-29T21:48:25.151Z,98818.31
2022-12-29T21:51:14.286Z,98825.38
2022-12-29T21:53:44.186Z,98827.00
2022-12-29T21:56:14.230Z,98825.38
2022-12-29T21:59:01.928Z,98824.44
2022-12-29T22:01:49.636Z,98810.59
2022-12-29T22:04:37.298Z,98822.75
2022-12-29T22:07:26.358Z,98828.88
2022-12-29T22:10:12.127Z,98828.81
2022-12-29T22:12:58.123Z,98835.78
2022-12-29T22:15:26.867Z,98847.13
2022-12-29T22:17:56.158Z,98853.19
2022-12-29T22:20:26.857Z,98851.56
2022-12-29T22:22:57.059Z,98854.19
2022-12-29T22:25:25.468Z,98851.63
2022-12-29T22:27:58.991Z,98857.03
2022-12-29T22:30:28.616Z,98853.72
2022-12-29T22:32:59.093Z,98862.31
2022-12-29T22:35:27.212Z,98862.31
2022-12-29T22:37:56.938Z,98871.06
2022-12-29T22:40:25.246Z,98876.28
2022-12-29T22:42:53.502Z,98879.97
2022-12-29T22:45:22.015Z,98887.06
2022-12-29T22:47:50.123Z,98879.16
2022-12-29T22:50:18.496Z,98881.81
2022-12-29T22:52:46.948Z,98881.88
2022-12-29T22:55:16.813Z,98882.78
2022-12-29T22:57:45.000Z,98892.34
2022-12-29T23:00:13.618Z,98885.31
2022-12-29T23:02:41.944Z,98891.41
2022-12-29T23:05:11.554Z,98880.31
2022-12-29T23:07:39.841Z,98887.97
2022-12-29T23:10:08.810Z,98896.69
2022-12-29T23:12:38.507Z,98896.00
2022-12-29T23:15:07.838Z,98902.09
2022-12-29T23:17:36.720Z,98901.25
2022-12-29T23:20:06.123Z,98906.47
2022-12-29T23:22:34.552Z,98909.16
2022-12-29T23:25:02.712Z,98912.56
2022-12-29T23:27:31.006Z,98918.59
2022-12-29T23:30:02.919Z,98923.81
2022-12-29T23:32:31.057Z,98908.22
2022-12-29T23:34:59.225Z,98906.41
2022-12-29T23:37:27.349Z,98901.25
2022-12-29T23:39:55.521Z,98918.75
2022-12-29T23:42:23.741Z,98910.06
2022-12-29T23:44:52.087Z,98897.91
2022-12-29T23:47:21.661Z,98906.75
2022-12-29T23:49:49.894Z,98892.03
2022-12-29T23:52:18.297Z,98899.94
2022-12-29T23:54:46.607Z,98905.09
2022-12-29T23:57:14.757Z,98906.88
2022-12-29T23:59:43.041Z,98910.38
